Birmingham, AL (35292)

11:42 PM CDT on September 02, 2014 (GMT -0500)
Central Business District | Change Station
CLOSE
Current Station
Personal Weather Station
Location: Birmingham, AL
Elevation: 636 ft
Nearby Weather Stations

Elev 636 ft 33.52 °N, 86.81 °W | Updated 7 seconds ago

Mostly Cloudy
Mostly Cloudy
81.4 °F
Feels Like 85 °F
N
1.1
Wind Variable Wind from WNW
Gusts 4.0 mph

Today
High -- | Low -- °F
--% Chance of Precip.
Yesterday
High -- | Low -- °F
Precip. -- in
6:21 AM 7:11 PM
First Quarter, 58% visible
Pressure 30.06 in
Visibility 10.0 miles
Clouds Mostly Cloudy 11000 ft
Heat Index 85 °F
Dew Point 71 °F
Humidity 70%
Rainfall 0.00 in
Snow Depth Not available.
UV 0 out of 12
Pollen 9.60 out of 12
Ozone Good
PM2.5 Good
Flu Activity Not available.
METAR KBHM 030353Z 29006KT 10SM BKN110 27/22 A3008 RMK AO2 SLP177 T02670222

More Conditions Fewer Conditions

Pressure 30.06 in
Visibility 10.0 miles
Clouds Mostly Cloudy 11000 ft
Heat Index 85 °F
Dew Point 71 °F
Humidity 70%
Rainfall 0.00 in
Snow Depth Not available.
UV 0 out of 12
Pollen 9.60 out of 12
Ozone Good
PM2.5 Good
Flu Activity Not available.
METAR KBHM 030353Z 29006KT 10SM BKN110 27/22 A3008 RMK AO2 SLP177 T02670222

More Conditions Fewer Conditions

10-Day Weather Forecast

Almanac

Astronomy

Sep. 02, 2014 Rise Set
Actual Time 6:21 AM CDT 7:11 PM CDT
Civil Twilight 5:56 AM CDT 7:36 PM CDT
Nautical Twilight 5:26 AM CDT 8:06 PM CDT
Astronomical Twilight 4:55 AM CDT 8:36 PM CDT
Moon 1:45 PM CDT (9/2) No Moon Set
Length of Visible Light 13h 39m
Length of Day
12h 49m
Tomorrow will be 2m 0s shorter.
First Quarter, 58% of the Moon is Illuminated
Sep 3
First Quarter
Sep 8
Full
Sep 15
Last Quarter
Sep 24
New
Oct 1
First Quarter

Yesterday's Extremes

State Highs State Lows

Community

WunderPhotos

Upload Photos

1,749,875 photos uploaded!

Nearby

Air Quality

  Air Quality AQ Index Pollutant
Yesterday Good
PM10
Yesterday Good
OZONE
Current Good
PM2.5
Current Good
OZONE
Tuesday Good
PM2.5
Tuesday Good
OZONE
Wednesday Moderate
PM2.5
Wednesday Good
OZONE

Snow Depth

Station Depth Elevation
No new snow has been reported.

Earthquake Activity

City Distance Mag. Time & Date
No recent earthquake activity has been reported nearby.
Minimum magnitude displayed is 2.5.

Coastal Water Temperatures

Place Temperature
No Stations Reporting

Nearby Weather Stations